Time;durP1;ratioP1;P1;durP2;ratioP2;P2;SDS_P1;SDS_P2;PMS_P1;PMS_P2;Temp;Humidity;BMP_temperature;BMP_pressure;BME280_temperature;BME280_humidity;BME280_pressure;Samples;Min_cycle;Max_cycle;Signal;HPM_P1;HPM_P2
2021/05/04 00:04:22;;;;;;;7.45;4.07;;;;;;;;;;5069506;28;20390;-78
2021/05/04 00:07:04;;;;;;;7.45;3.80;;;;;;;;;;5110409;27;20377;-78
2021/05/04 00:10:17;;;;;;;7.13;3.65;;;;;;;;;;5110375;27;20385;-77
2021/05/04 00:14:18;;;;;;;4.60;2.88;;;;;;;;;;5069877;27;20391;-77
2021/05/04 00:16:45;;;;;;;7.80;3.30;;;;;;;;;;5069935;28;20079;-77
2021/05/04 00:19:11;;;;;;;7.40;3.45;;;;;;;;;;5068049;28;20032;-76
2021/05/04 00:21:37;;;;;;;6.32;3.28;;;;;;;;;;5069711;28;20055;-76
2021/05/04 00:24:04;;;;;;;8.32;4.00;;;;;;;;;;5069645;28;20043;-74
2021/05/04 00:26:31;;;;;;;6.68;3.70;;;;;;;;;;5069277;28;20032;-74
2021/05/04 00:28:57;;;;;;;7.47;3.92;;;;;;;;;;5069568;28;20051;-74
2021/05/04 00:31:23;;;;;;;5.60;3.20;;;;;;;;;;5069657;28;20046;-77
2021/05/04 00:37:28;;;;;;;5.85;3.22;;;;;;;;;;5110414;27;20376;-74
2021/05/04 00:39:54;;;;;;;6.10;3.28;;;;;;;;;;5108713;28;20032;-74
2021/05/04 00:42:23;;;;;;;4.95;3.00;;;;;;;;;;5110259;28;20028;-74
2021/05/04 00:44:50;;;;;;;4.90;2.88;;;;;;;;;;5108984;28;20024;-74
2021/05/04 00:47:16;;;;;;;5.55;3.25;;;;;;;;;;5109698;28;20024;-76
2021/05/04 00:55:07;;;;;;;7.20;3.65;;;;;;;;;;5110094;27;20381;-75
2021/05/04 00:57:33;;;;;;;5.30;3.55;;;;;;;;;;5110342;28;20039;-74
2021/05/04 01:01:48;;;;;;;6.20;3.35;;;;;;;;;;5089600;28;20166;-74
2021/05/04 01:04:14;;;;;;;5.85;3.47;;;;;;;;;;5088853;28;20360;-75
2021/05/04 01:10:15;;;;;;;6.07;3.35;;;;;;;;;;5110323;27;20430;-75
2021/05/04 01:12:41;;;;;;;6.07;3.40;;;;;;;;;;5110421;28;20035;-75
2021/05/04 01:15:07;;;;;;;8.38;3.97;;;;;;;;;;5110106;28;20020;-74
2021/05/04 01:17:34;;;;;;;7.22;4.03;;;;;;;;;;5110589;28;20020;-75
2021/05/04 01:20:01;;;;;;;6.45;3.80;;;;;;;;;;5110232;28;20089;-76
2021/05/04 01:22:27;;;;;;;8.75;3.28;;;;;;;;;;5109832;28;20024;-76
2021/05/04 01:26:00;;;;;;;5.10;3.00;;;;;;;;;;5110442;27;20380;-73
2021/05/04 01:28:27;;;;;;;5.80;3.40;;;;;;;;;;5110392;28;20085;-75
2021/05/04 01:30:53;;;;;;;5.60;3.08;;;;;;;;;;5109878;28;20024;-74
2021/05/04 01:33:19;;;;;;;7.22;3.95;;;;;;;;;;5110515;28;20056;-74
2021/05/04 01:35:45;;;;;;;6.45;3.70;;;;;;;;;;5110383;28;20024;-75
2021/05/04 01:38:11;;;;;;;6.75;3.35;;;;;;;;;;5109975;28;20038;-74
2021/05/04 01:40:38;;;;;;;6.75;3.42;;;;;;;;;;5110044;28;20050;-75
2021/05/04 01:44:09;;;;;;;5.47;3.00;;;;;;;;;;5110021;27;20385;-73
2021/05/04 01:46:35;;;;;;;5.82;2.90;;;;;;;;;;5109071;28;20515;-77
2021/05/04 01:49:02;;;;;;;8.57;3.30;;;;;;;;;;5110225;28;20069;-75
2021/05/04 01:51:29;;;;;;;6.40;3.38;;;;;;;;;;5110188;28;20030;-75
2021/05/04 01:53:56;;;;;;;7.20;3.20;;;;;;;;;;5109146;28;20028;-75
2021/05/04 01:56:22;;;;;;;11.35;4.10;;;;;;;;;;5109068;28;20016;-75
2021/05/04 01:59:55;;;;;;;7.55;3.28;;;;;;;;;;5110472;27;20457;-75
2021/05/04 02:02:21;;;;;;;5.95;3.53;;;;;;;;;;5110609;28;20414;-74
2021/05/04 02:07:16;;;;;;;9.82;3.38;;;;;;;;;;5110240;27;20388;-75
2021/05/04 02:09:42;;;;;;;7.28;3.65;;;;;;;;;;5110337;28;20028;-75
2021/05/04 02:12:20;;;;;;;9.20;3.75;;;;;;;;;;5110151;27;20957;-74
2021/05/04 02:14:46;;;;;;;7.45;3.30;;;;;;;;;;5110691;28;20035;-74
2021/05/04 02:17:45;;;;;;;5.53;3.35;;;;;;;;;;5110513;27;20430;-74
2021/05/04 02:20:12;;;;;;;8.82;3.45;;;;;;;;;;5110053;28;20032;-74
2021/05/04 02:22:38;;;;;;;9.20;3.25;;;;;;;;;;5110275;28;20456;-75
2021/05/04 02:25:05;;;;;;;7.32;3.45;;;;;;;;;;5108352;28;20123;-77
2021/05/04 02:27:31;;;;;;;5.82;2.90;;;;;;;;;;5110247;28;20024;-76
2021/05/04 02:31:47;;;;;;;7.97;3.72;;;;;;;;;;5110480;27;20377;-74
2021/05/04 02:34:13;;;;;;;6.30;3.28;;;;;;;;;;5110092;28;20028;-75
2021/05/04 02:36:58;;;;;;;6.90;3.30;;;;;;;;;;5110229;27;20426;-75
2021/05/04 02:39:24;;;;;;;6.15;3.00;;;;;;;;;;5110016;28;20031;-74
2021/05/04 02:43:57;;;;;;;7.18;2.90;;;;;;;;;;5069749;28;20791;-75
2021/05/04 02:46:23;;;;;;;8.45;3.45;;;;;;;;;;5068261;28;20726;-74
2021/05/04 02:50:26;;;;;;;6.60;3.80;;;;;;;;;;5110552;27;20381;-76
2021/05/04 02:55:38;;;;;;;7.00;2.90;;;;;;;;;;5110331;27;20850;-78
2021/05/04 02:58:26;;;;;;;5.68;2.90;;;;;;;;;;5110521;27;20384;-76
2021/05/04 03:00:52;;;;;;;4.45;2.53;;;;;;;;;;5109890;28;20476;-76
2021/05/04 03:03:19;;;;;;;8.68;3.42;;;;;;;;;;5108993;28;20158;-76
2021/05/04 03:06:06;;;;;;;5.57;3.22;;;;;;;;;;5110426;27;20427;-74
2021/05/04 03:08:33;;;;;;;6.95;2.83;;;;;;;;;;5109867;28;20028;-75
2021/05/04 03:10:59;;;;;;;5.32;2.80;;;;;;;;;;5110397;28;20058;-74
2021/05/04 03:13:49;;;;;;;9.02;2.80;;;;;;;;;;5069893;28;20441;-75
2021/05/04 03:17:19;;;;;;;6.00;2.63;;;;;;;;;;5069767;28;20445;-74
2021/05/04 03:19:45;;;;;;;6.28;3.13;;;;;;;;;;5069763;28;20036;-74
2021/05/04 03:22:11;;;;;;;7.45;3.42;;;;;;;;;;5051358;28;20033;-74
2021/05/04 03:25:04;;;;;;;4.82;2.67;;;;;;;;;;5110277;27;20944;-75
2021/05/04 03:27:30;;;;;;;6.75;3.33;;;;;;;;;;5110459;28;20073;-76
2021/05/04 03:29:57;;;;;;;7.03;4.43;;;;;;;;;;5110099;28;20387;-75
2021/05/04 03:34:04;;;;;;;7.85;2.92;;;;;;;;;;5110332;27;20463;-75
2021/05/04 03:36:30;;;;;;;5.72;3.33;;;;;;;;;;5110177;28;20043;-75
2021/05/04 03:38:56;;;;;;;5.60;3.25;;;;;;;;;;5110215;28;20541;-75
2021/05/04 03:41:23;;;;;;;5.25;2.83;;;;;;;;;;5110311;28;20028;-75
2021/05/04 03:43:49;;;;;;;7.60;3.85;;;;;;;;;;5109813;28;20094;-75
2021/05/04 03:46:15;;;;;;;7.30;4.25;;;;;;;;;;5108883;28;20028;-75
2021/05/04 03:48:41;;;;;;;8.27;3.53;;;;;;;;;;5110205;28;20062;-76
2021/05/04 03:51:07;;;;;;;7.00;3.35;;;;;;;;;;5109627;28;20095;-75
2021/05/04 03:54:52;;;;;;;5.47;2.92;;;;;;;;;;5110353;27;20434;-76
2021/05/04 03:57:18;;;;;;;6.07;3.85;;;;;;;;;;5109933;28;20459;-77
2021/05/04 03:59:44;;;;;;;4.90;2.75;;;;;;;;;;5110307;28;20050;-76
2021/05/04 04:03:02;;;;;;;5.72;3.00;;;;;;;;;;5110338;27;20744;-75
2021/05/04 04:05:29;;;;;;;7.18;3.10;;;;;;;;;;5109961;28;20062;-75
2021/05/04 04:07:55;;;;;;;9.38;3.88;;;;;;;;;;5109270;28;20020;-76
2021/05/04 04:12:26;;;;;;;10.40;3.72;;;;;;;;;;5109912;27;20429;-78
2021/05/04 04:14:53;;;;;;;7.90;3.33;;;;;;;;;;5110279;28;20103;-76
2021/05/04 04:17:20;;;;;;;6.80;3.25;;;;;;;;;;5108924;28;20016;-75
2021/05/04 04:20:58;;;;;;;7.50;3.60;;;;;;;;;;5110210;27;20181;-76
2021/05/04 04:23:40;;;;;;;8.32;3.40;;;;;;;;;;5110398;27;20438;-75
2021/05/04 04:26:06;;;;;;;7.10;3.70;;;;;;;;;;5108653;28;20478;-75
2021/05/04 04:28:32;;;;;;;6.35;3.25;;;;;;;;;;5110496;28;20024;-76
2021/05/04 04:30:58;;;;;;;5.53;3.08;;;;;;;;;;5110352;28;20020;-75
2021/05/04 04:33:25;;;;;;;7.45;4.05;;;;;;;;;;5109927;28;20386;-76
2021/05/04 04:35:51;;;;;;;8.35;4.45;;;;;;;;;;5110491;28;20043;-77
2021/05/04 04:44:20;;;;;;;11.20;4.40;;;;;;;;;;5110342;27;20430;-74
2021/05/04 04:47:18;;;;;;;6.95;4.00;;;;;;;;;;5110150;27;20381;-74
2021/05/04 04:50:52;;;;;;;6.47;3.40;;;;;;;;;;5110254;27;20162;-74
2021/05/04 04:55:29;;;;;;;6.15;2.70;;;;;;;;;;5110314;27;20389;-74
2021/05/04 04:58:05;;;;;;;6.80;3.33;;;;;;;;;;5110359;27;20455;-75
2021/05/04 05:00:31;;;;;;;7.13;4.10;;;;;;;;;;5108657;28;20373;-74
2021/05/04 05:02:57;;;;;;;7.22;3.60;;;;;;;;;;5110102;28;20383;-74
2021/05/04 05:07:08;;;;;;;9.05;4.00;;;;;;;;;;5129946;27;20915;-74
2021/05/04 05:10:18;;;;;;;5.22;2.80;;;;;;;;;;5110024;27;20440;-74
2021/05/04 05:12:44;;;;;;;8.80;3.28;;;;;;;;;;5108971;28;20381;-74
2021/05/04 05:15:11;;;;;;;5.35;3.03;;;;;;;;;;5108279;28;20043;-74
2021/05/04 05:19:30;;;;;;;5.18;2.65;;;;;;;;;;5109064;27;20388;-74
2021/05/04 05:23:56;;;;;;;6.47;3.03;;;;;;;;;;5110278;27;20385;-74
2021/05/04 05:26:22;;;;;;;6.43;3.20;;;;;;;;;;5110338;28;20099;-75
2021/05/04 05:29:14;;;;;;;5.85;2.65;;;;;;;;;;5110036;27;20385;-75
2021/05/04 05:31:40;;;;;;;5.38;2.72;;;;;;;;;;5108959;28;20474;-75
2021/05/04 05:35:04;;;;;;;5.43;2.33;;;;;;;;;;5109806;27;20726;-75
2021/05/04 05:37:30;;;;;;;3.97;2.40;;;;;;;;;;5109117;28;20542;-74
2021/05/04 05:39:56;;;;;;;5.55;2.70;;;;;;;;;;5110055;28;20012;-75
2021/05/04 05:42:22;;;;;;;5.72;2.70;;;;;;;;;;5108650;28;20028;-75
2021/05/04 05:46:56;;;;;;;7.22;2.35;;;;;;;;;;5107739;27;20385;-73
2021/05/04 05:49:22;;;;;;;4.20;2.45;;;;;;;;;;5117743;28;20507;-73
2021/05/04 05:51:49;;;;;;;5.50;2.25;;;;;;;;;;5128845;28;20031;-74
2021/05/04 05:54:15;;;;;;;6.30;2.83;;;;;;;;;;5129342;28;20027;-74
2021/05/04 05:56:59;;;;;;;5.57;2.63;;;;;;;;;;5109832;27;20795;-74
2021/05/04 05:59:25;;;;;;;6.95;2.60;;;;;;;;;;5110259;28;20391;-75
2021/05/04 06:01:51;;;;;;;6.65;3.10;;;;;;;;;;5108844;28;20020;-74
2021/05/04 06:04:17;;;;;;;5.15;2.72;;;;;;;;;;5109773;28;20430;-74
2021/05/04 06:06:43;;;;;;;5.57;2.60;;;;;;;;;;5109992;28;20028;-74
2021/05/04 06:09:10;;;;;;;5.78;2.80;;;;;;;;;;5110100;28;20028;-75
2021/05/04 06:11:53;;;;;;;3.35;2.13;;;;;;;;;;5108071;27;20397;-74
2021/05/04 06:14:19;;;;;;;4.80;2.13;;;;;;;;;;5108562;28;20055;-74
2021/05/04 06:17:11;;;;;;;3.58;2.17;;;;;;;;;;5109533;27;20385;-74
2021/05/04 06:19:37;;;;;;;4.68;2.00;;;;;;;;;;5109983;28;20020;-74
2021/05/04 06:22:03;;;;;;;4.32;2.03;;;;;;;;;;5108664;28;20020;-75
2021/05/04 06:27:30;;;;;;;7.68;2.15;;;;;;;;;;5110332;27;20970;-76
2021/05/04 06:29:57;;;;;;;5.00;2.50;;;;;;;;;;5109062;28;20031;-75
2021/05/04 06:33:32;;;;;;;5.53;2.55;;;;;;;;;;5069211;28;20453;-74
2021/05/04 06:35:58;;;;;;;4.03;2.33;;;;;;;;;;5069896;28;20021;-74
2021/05/04 06:38:24;;;;;;;3.80;2.25;;;;;;;;;;5068961;28;20024;-74
2021/05/04 06:40:51;;;;;;;5.80;2.60;;;;;;;;;;5069657;28;20020;-74
2021/05/04 06:43:17;;;;;;;6.38;2.35;;;;;;;;;;5068160;28;20025;-75
2021/05/04 06:45:44;;;;;;;7.15;2.28;;;;;;;;;;5067990;28;20400;-75
2021/05/04 06:48:10;;;;;;;5.72;2.13;;;;;;;;;;5068429;28;20591;-74
2021/05/04 06:50:36;;;;;;;5.93;2.10;;;;;;;;;;5069415;28;20060;-75
2021/05/04 06:53:03;;;;;;;3.47;1.83;;;;;;;;;;5067635;28;20087;-75
2021/05/04 06:56:51;;;;;;;5.45;2.72;;;;;;;;;;5110124;27;20434;-75
2021/05/04 06:59:17;;;;;;;4.07;2.10;;;;;;;;;;5109757;28;20020;-74
2021/05/04 07:01:58;;;;;;;3.95;2.38;;;;;;;;;;5109350;27;20385;-74
2021/05/04 07:04:24;;;;;;;5.45;2.03;;;;;;;;;;5108150;28;20028;-74
2021/05/04 07:06:50;;;;;;;3.15;1.58;;;;;;;;;;5108627;28;20532;-75
2021/05/04 07:09:42;;;;;;;4.15;2.00;;;;;;;;;;5172515;27;20109;-74
2021/05/04 07:12:09;;;;;;;4.70;2.13;;;;;;;;;;5132771;27;20026;-74
2021/05/04 07:14:35;;;;;;;12.02;3.03;;;;;;;;;;5151095;27;20019;-75
2021/05/04 07:18:50;;;;;;;6.63;2.15;;;;;;;;;;5110257;27;20442;-75
2021/05/04 07:21:16;;;;;;;3.20;1.73;;;;;;;;;;5109897;28;20039;-74
2021/05/04 07:23:43;;;;;;;5.32;2.17;;;;;;;;;;5110037;28;20074;-75
2021/05/04 07:26:10;;;;;;;5.00;2.47;;;;;;;;;;5108782;28;20028;-74
2021/05/04 07:30:16;;;;;;;6.00;2.28;;;;;;;;;;5110347;27;20787;-75
2021/05/04 07:32:43;;;;;;;4.45;2.25;;;;;;;;;;5110089;28;20472;-75
2021/05/04 07:35:09;;;;;;;5.60;2.00;;;;;;;;;;5109716;28;20016;-74
2021/05/04 07:39:08;;;;;;;5.78;2.70;;;;;;;;;;5108816;27;21721;-73
2021/05/04 07:41:35;;;;;;;7.50;2.40;;;;;;;;;;5106152;28;20036;-74
2021/05/04 07:47:35;;;;;;;4.65;2.13;;;;;;;;;;5069657;28;20384;-75
2021/05/04 07:50:02;;;;;;;3.88;1.92;;;;;;;;;;5069476;28;20029;-75
2021/05/04 07:52:28;;;;;;;5.22;2.20;;;;;;;;;;5069693;28;20020;-74
2021/05/04 07:54:54;;;;;;;4.28;2.08;;;;;;;;;;5069632;28;20049;-74
2021/05/04 07:57:21;;;;;;;5.55;2.08;;;;;;;;;;5069217;28;20021;-74
2021/05/04 08:00:26;;;;;;;6.75;2.22;;;;;;;;;;5069571;28;20423;-73
2021/05/04 08:02:53;;;;;;;3.40;1.98;;;;;;;;;;5069070;28;20036;-74
2021/05/04 08:05:19;;;;;;;3.25;1.80;;;;;;;;;;5069254;28;20021;-76
2021/05/04 08:07:45;;;;;;;5.05;2.17;;;;;;;;;;5068244;28;20387;-76
2021/05/04 08:10:12;;;;;;;7.85;5.00;;;;;;;;;;5069168;28;20025;-75
2021/05/04 08:12:39;;;;;;;5.45;2.65;;;;;;;;;;5069481;28;20024;-75
2021/05/04 08:15:07;;;;;;;3.83;2.03;;;;;;;;;;5069471;28;20396;-76
2021/05/04 08:17:36;;;;;;;4.50;2.00;;;;;;;;;;5069040;28;20082;-76
2021/05/04 08:21:34;;;;;;;3.50;2.03;;;;;;;;;;5110256;27;20737;-76
2021/05/04 08:24:01;;;;;;;4.03;1.73;;;;;;;;;;5109910;28;20439;-76
2021/05/04 08:26:40;;;;;;;5.85;2.00;;;;;;;;;;5110483;27;20357;-76
2021/05/04 08:29:06;;;;;;;3.47;1.70;;;;;;;;;;5110342;28;20035;-77
2021/05/04 08:31:34;;;;;;;3.05;1.60;;;;;;;;;;5108558;28;20375;-77
2021/05/04 08:34:00;;;;;;;3.28;2.00;;;;;;;;;;5110448;28;20031;-77
2021/05/04 08:36:26;;;;;;;2.40;1.73;;;;;;;;;;5110039;28;20050;-76
2021/05/04 08:38:52;;;;;;;5.30;1.80;;;;;;;;;;5099052;28;20126;-75
2021/05/04 08:41:19;;;;;;;4.95;2.33;;;;;;;;;;5119485;28;20027;-75
2021/05/04 08:43:46;;;;;;;7.07;2.35;;;;;;;;;;5129762;28;20058;-78
2021/05/04 08:46:13;;;;;;;3.38;1.65;;;;;;;;;;5129734;28;20106;-75
2021/05/04 08:48:43;;;;;;;5.10;1.77;;;;;;;;;;5130273;28;20019;-77
2021/05/04 08:51:10;;;;;;;3.45;1.77;;;;;;;;;;5130200;28;20379;-76
2021/05/04 08:53:36;;;;;;;7.18;2.67;;;;;;;;;;5129129;28;20027;-77
2021/05/04 08:56:02;;;;;;;3.50;1.90;;;;;;;;;;5115466;28;20487;-76
2021/05/04 08:58:29;;;;;;;4.75;2.13;;;;;;;;;;5107669;28;20101;-76
2021/05/04 09:00:56;;;;;;;4.78;1.88;;;;;;;;;;5108887;28;20091;-76
2021/05/04 09:03:38;;;;;;;5.28;1.92;;;;;;;;;;5108829;28;20647;-76
2021/05/04 09:06:06;;;;;;;3.50;2.15;;;;;;;;;;5107281;28;20123;-76
2021/05/04 09:16:48;;;;;;;3.22;1.65;;;;;;;;;;5070055;28;20507;-77
2021/05/04 09:21:46;;;;;;;2.80;1.87;;;;;;;;;;5069109;28;20536;-76
2021/05/04 09:24:39;;;;;;;3.22;1.75;;;;;;;;;;5068699;28;20366;-77
2021/05/04 09:27:07;;;;;;;4.28;1.70;;;;;;;;;;5068662;28;20368;-77
2021/05/04 09:30:24;;;;;;;3.35;1.83;;;;;;;;;;5069646;28;20384;-75
2021/05/04 09:32:51;;;;;;;2.78;1.70;;;;;;;;;;5069813;28;20039;-74
2021/05/04 09:35:17;;;;;;;3.95;2.00;;;;;;;;;;5061494;28;20094;-75
2021/05/04 09:37:44;;;;;;;5.55;2.08;;;;;;;;;;5067625;28;20029;-77
2021/05/04 09:40:22;;;;;;;4.28;2.10;;;;;;;;;;5067767;28;20135;-77
2021/05/04 09:43:04;;;;;;;7.47;2.25;;;;;;;;;;5067504;28;20098;-76
2021/05/04 09:45:30;;;;;;;3.72;2.00;;;;;;;;;;5069222;28;20404;-75
2021/05/04 09:48:22;;;;;;;3.85;2.08;;;;;;;;;;5069125;28;20535;-74
2021/05/04 09:50:53;;;;;;;7.77;2.50;;;;;;;;;;5060570;28;20032;-75
2021/05/04 09:53:58;;;;;;;4.18;1.98;;;;;;;;;;5171812;27;20369;-75
2021/05/04 09:56:34;;;;;;;3.80;1.90;;;;;;;;;;5152685;27;20122;-76
2021/05/04 09:59:02;;;;;;;3.42;1.92;;;;;;;;;;5171167;27;20019;-76
2021/05/04 10:01:28;;;;;;;3.25;1.83;;;;;;;;;;5171589;27;20022;-76
2021/05/04 10:03:55;;;;;;;3.00;1.52;;;;;;;;;;5152949;27;20026;-76
2021/05/04 10:06:21;;;;;;;3.40;1.65;;;;;;;;;;5152639;27;20082;-75
2021/05/04 10:08:49;;;;;;;5.45;1.70;;;;;;;;;;5179441;27;20101;-76
2021/05/04 10:11:20;;;;;;;3.80;1.83;;;;;;;;;;5170756;27;20019;-76
2021/05/04 10:13:53;;;;;;;4.70;1.77;;;;;;;;;;5171659;27;20035;-76
2021/05/04 10:16:27;;;;;;;6.57;2.60;;;;;;;;;;5172501;27;20018;-76
2021/05/04 10:18:56;;;;;;;4.65;2.40;;;;;;;;;;5153945;27;20110;-75
2021/05/04 10:21:25;;;;;;;5.22;1.98;;;;;;;;;;5130072;27;20475;-76
2021/05/04 10:25:42;;;;;;;2.05;1.30;;;;;;;;;;5111424;27;20385;-76
2021/05/04 10:28:09;;;;;;;4.25;1.70;;;;;;;;;;5127532;28;20076;-75
2021/05/04 10:30:35;;;;;;;5.38;1.83;;;;;;;;;;5118484;28;20082;-77
2021/05/04 10:33:08;;;;;;;5.03;1.85;;;;;;;;;;5110036;28;20015;-76
2021/05/04 10:35:38;;;;;;;3.90;1.85;;;;;;;;;;5109737;28;20027;-75
2021/05/04 10:38:12;;;;;;;4.20;1.50;;;;;;;;;;5106810;28;20024;-75
2021/05/04 10:40:43;;;;;;;5.65;1.85;;;;;;;;;;5108009;28;20107;-77
2021/05/04 10:43:22;;;;;;;4.50;1.67;;;;;;;;;;5109740;28;20020;-74
2021/05/04 10:45:49;;;;;;;2.97;1.85;;;;;;;;;;5108414;28;20403;-75
2021/05/04 10:48:15;;;;;;;6.13;1.98;;;;;;;;;;5110107;28;20020;-75
2021/05/04 10:50:51;;;;;;;3.90;1.52;;;;;;;;;;5108206;28;20035;-76
2021/05/04 10:53:19;;;;;;;2.67;1.90;;;;;;;;;;5109441;28;20024;-76
2021/05/04 10:55:54;;;;;;;3.45;2.00;;;;;;;;;;5109187;28;20098;-76
2021/05/04 10:58:21;;;;;;;3.25;1.90;;;;;;;;;;5109681;28;20023;-76
2021/05/04 11:00:51;;;;;;;4.63;2.15;;;;;;;;;;5107988;28;20024;-76
2021/05/04 11:03:32;;;;;;;4.53;1.95;;;;;;;;;;5109496;28;20016;-76
2021/05/04 11:05:59;;;;;;;3.30;1.70;;;;;;;;;;5109164;28;20140;-76
2021/05/04 11:08:25;;;;;;;5.57;1.92;;;;;;;;;;5109686;28;20022;-76
2021/05/04 11:11:10;;;;;;;5.00;2.17;;;;;;;;;;5108159;28;20502;-76
2021/05/04 11:13:57;;;;;;;5.20;1.70;;;;;;;;;;5109186;28;20020;-77
2021/05/04 11:16:35;;;;;;;3.38;1.55;;;;;;;;;;5108448;28;20115;-77
2021/05/04 11:19:06;;;;;;;3.72;2.00;;;;;;;;;;5107964;28;20108;-77
2021/05/04 11:21:41;;;;;;;4.88;2.20;;;;;;;;;;5109021;28;20035;-77
2021/05/04 11:24:12;;;;;;;6.55;2.80;;;;;;;;;;5107844;28;20051;-77
2021/05/04 11:26:44;;;;;;;3.95;2.22;;;;;;;;;;5109455;28;20016;-77
2021/05/04 11:29:11;;;;;;;4.63;2.35;;;;;;;;;;5109409;28;20032;-78
2021/05/04 11:31:38;;;;;;;6.90;2.00;;;;;;;;;;5109302;28;20012;-78
2021/05/04 11:34:23;;;;;;;6.20;2.20;;;;;;;;;;5108834;28;20335;-77
2021/05/04 11:36:49;;;;;;;5.70;2.33;;;;;;;;;;5096696;28;20024;-77
2021/05/04 11:39:15;;;;;;;3.88;2.05;;;;;;;;;;5095355;28;20028;-77
2021/05/04 11:41:42;;;;;;;4.07;2.28;;;;;;;;;;5094958;28;20024;-77
2021/05/04 11:44:08;;;;;;;4.55;2.22;;;;;;;;;;5094017;28;20028;-77
2021/05/04 11:46:35;;;;;;;5.30;2.60;;;;;;;;;;5094164;28;20102;-77
2021/05/04 11:49:01;;;;;;;4.78;2.25;;;;;;;;;;5095031;28;20016;-75
2021/05/04 11:51:27;;;;;;;4.60;2.00;;;;;;;;;;5095443;28;20376;-76
2021/05/04 11:53:54;;;;;;;2.95;1.80;;;;;;;;;;5095396;28;20020;-76
2021/05/04 11:56:20;;;;;;;4.65;2.03;;;;;;;;;;5094991;28;20072;-78
2021/05/04 11:58:46;;;;;;;7.40;1.60;;;;;;;;;;5093852;28;20111;-78
2021/05/04 12:01:13;;;;;;;8.80;2.00;;;;;;;;;;5093730;28;20028;-76
2021/05/04 12:03:40;;;;;;;3.38;1.67;;;;;;;;;;5094455;28;20028;-76
2021/05/04 12:06:06;;;;;;;7.57;2.35;;;;;;;;;;5094720;28;20028;-77
2021/05/04 12:08:32;;;;;;;2.92;1.65;;;;;;;;;;5094984;28;20020;-77
2021/05/04 12:10:58;;;;;;;5.22;2.13;;;;;;;;;;5093035;28;20047;-76
2021/05/04 12:13:26;;;;;;;5.15;2.13;;;;;;;;;;5094748;28;20042;-77
2021/05/04 12:15:53;;;;;;;7.75;2.50;;;;;;;;;;5094684;28;20021;-76
2021/05/04 12:18:23;;;;;;;7.97;2.58;;;;;;;;;;5094247;28;20031;-76
2021/05/04 12:20:57;;;;;;;3.28;1.75;;;;;;;;;;5093136;28;20031;-76
2021/05/04 12:23:27;;;;;;;4.07;1.90;;;;;;;;;;5093954;28;20337;-76
2021/05/04 12:26:01;;;;;;;3.30;1.73;;;;;;;;;;5094592;28;20020;-77
2021/05/04 12:28:30;;;;;;;3.75;1.70;;;;;;;;;;5094960;28;20111;-77
2021/05/04 12:31:21;;;;;;;3.67;1.70;;;;;;;;;;5092717;28;20024;-77
2021/05/04 12:33:51;;;;;;;5.63;1.67;;;;;;;;;;5091676;28;20036;-77
2021/05/04 12:36:41;;;;;;;6.35;2.05;;;;;;;;;;5094566;28;20536;-77
2021/05/04 12:39:19;;;;;;;2.63;1.38;;;;;;;;;;5093838;28;20111;-77
2021/05/04 12:41:48;;;;;;;4.68;1.70;;;;;;;;;;5093020;28;20501;-78
2021/05/04 12:46:50;;;;;;;3.90;1.85;;;;;;;;;;5093886;28;20028;-77
2021/05/04 12:49:16;;;;;;;5.80;1.95;;;;;;;;;;5093837;28;20043;-76
2021/05/04 12:51:54;;;;;;;6.35;1.70;;;;;;;;;;5093713;28;20341;-77
2021/05/04 12:54:22;;;;;;;3.65;1.73;;;;;;;;;;5092732;28;20449;-77
2021/05/04 12:56:49;;;;;;;4.10;1.83;;;;;;;;;;5094170;28;20016;-77
2021/05/04 12:59:16;;;;;;;5.28;2.08;;;;;;;;;;5092265;28;20039;-77
2021/05/04 13:01:48;;;;;;;8.27;2.05;;;;;;;;;;5092543;28;20065;-77
2021/05/04 13:05:02;;;;;;;6.57;1.77;;;;;;;;;;5092509;28;20060;-76
2021/05/04 13:07:08;;;;;;;4.03;2.03;;;;;;;;;;5092739;28;20054;-76
2021/05/04 13:12:17;;;;;;;8.38;2.90;;;;;;;;;;5093322;28;20020;-76
2021/05/04 13:30:55;;;;;;;4.97;2.45;;;;;;;;;;5093529;28;20047;-76
2021/05/04 13:33:22;;;;;;;4.95;1.92;;;;;;;;;;5092161;28;20392;-74
2021/05/04 13:36:03;;;;;;;4.18;1.90;;;;;;;;;;5091992;28;20484;-75
2021/05/04 13:49:09;;;;;;;7.38;2.30;;;;;;;;;;5092946;28;20035;-76
2021/05/04 13:51:37;;;;;;;8.68;2.10;;;;;;;;;;5091695;28;20028;-76
2021/05/04 13:54:04;;;;;;;7.90;2.25;;;;;;;;;;5092590;28;20021;-76
2021/05/04 13:56:30;;;;;;;4.63;2.20;;;;;;;;;;5092346;28;20032;-76
2021/05/04 13:58:57;;;;;;;4.75;1.95;;;;;;;;;;5092533;28;20023;-76
2021/05/04 14:01:37;;;;;;;3.83;2.22;;;;;;;;;;5092678;28;20107;-76
2021/05/04 14:09:40;;;;;;;5.72;2.40;;;;;;;;;;5092412;28;20060;-76
2021/05/04 14:27:49;;;;;;;5.60;1.98;;;;;;;;;;5092925;28;19904;-74
2021/05/04 14:30:16;;;;;;;6.15;2.08;;;;;;;;;;5092349;28;20021;-74
2021/05/04 14:32:43;;;;;;;4.22;2.20;;;;;;;;;;5092410;28;20476;-75
2021/05/04 14:35:17;;;;;;;3.15;1.75;;;;;;;;;;5092355;28;20099;-75
2021/05/04 14:40:34;;;;;;;6.73;2.40;;;;;;;;;;5092574;28;20020;-75
2021/05/04 14:58:53;;;;;;;4.68;2.08;;;;;;;;;;5092132;28;20534;-76
2021/05/04 15:03:54;;;;;;;5.80;2.15;;;;;;;;;;5092260;28;20649;-75
2021/05/04 15:06:20;;;;;;;16.92;2.40;;;;;;;;;;5091963;28;20039;-76
2021/05/04 15:08:46;;;;;;;5.93;2.13;;;;;;;;;;5092273;28;20040;-76
2021/05/04 15:11:13;;;;;;;4.20;1.80;;;;;;;;;;5093893;28;20031;-77
2021/05/04 15:13:43;;;;;;;5.80;2.78;;;;;;;;;;5095646;28;20024;-77
2021/05/04 15:24:05;;;;;;;4.53;2.30;;;;;;;;;;5095531;28;20036;-75
2021/05/04 15:26:31;;;;;;;5.18;2.25;;;;;;;;;;5093970;28;20541;-77
2021/05/04 15:28:58;;;;;;;7.25;2.58;;;;;;;;;;5094531;28;20394;-76
2021/05/04 15:31:27;;;;;;;4.60;2.75;;;;;;;;;;5094367;28;20326;-77
2021/05/04 15:33:54;;;;;;;5.07;2.15;;;;;;;;;;5097355;28;20030;-76
2021/05/04 15:36:22;;;;;;;5.32;1.90;;;;;;;;;;5096811;28;20028;-77
2021/05/04 15:38:49;;;;;;;5.43;2.53;;;;;;;;;;5095529;28;20020;-78
2021/05/04 15:41:16;;;;;;;6.18;2.45;;;;;;;;;;5095160;28;20066;-77
2021/05/04 15:43:46;;;;;;;8.32;2.17;;;;;;;;;;5095425;28;20500;-77
2021/05/04 15:49:20;;;;;;;5.97;3.03;;;;;;;;;;5094171;28;20095;-76
2021/05/04 16:01:12;;;;;;;3.88;1.95;;;;;;;;;;5109969;28;20157;-75
2021/05/04 16:06:27;;;;;;;9.50;2.80;;;;;;;;;;5110079;28;20032;-75
2021/05/04 16:11:29;;;;;;;5.53;2.72;;;;;;;;;;5110501;28;20016;-76
2021/05/04 16:13:55;;;;;;;8.32;2.72;;;;;;;;;;5109959;28;20039;-75
2021/05/04 16:16:22;;;;;;;5.00;2.28;;;;;;;;;;5108137;28;20030;-75
2021/05/04 16:18:55;;;;;;;4.22;1.92;;;;;;;;;;5109862;28;20103;-76
2021/05/04 16:21:31;;;;;;;5.80;2.60;;;;;;;;;;5110017;28;20043;-75
2021/05/04 16:24:05;;;;;;;9.77;3.42;;;;;;;;;;5109605;28;20502;-75
2021/05/04 16:31:30;;;;;;;8.88;2.95;;;;;;;;;;5109672;28;20091;-76
2021/05/04 16:33:56;;;;;;;7.85;2.28;;;;;;;;;;5109845;28;20027;-76
2021/05/04 16:36:22;;;;;;;10.18;3.13;;;;;;;;;;5109374;28;20027;-76
2021/05/04 16:38:49;;;;;;;6.22;2.60;;;;;;;;;;5109621;28;20023;-76
2021/05/04 16:41:15;;;;;;;8.52;2.83;;;;;;;;;;5108013;28;20051;-76
2021/05/04 16:43:41;;;;;;;8.55;2.13;;;;;;;;;;5109118;28;20445;-75
2021/05/04 16:46:10;;;;;;;11.77;2.38;;;;;;;;;;5109378;28;20023;-74
2021/05/04 16:48:40;;;;;;;8.20;2.40;;;;;;;;;;5109349;28;20035;-74
2021/05/04 16:51:10;;;;;;;6.18;2.13;;;;;;;;;;5107918;28;20042;-75
2021/05/04 16:53:36;;;;;;;8.80;2.55;;;;;;;;;;5109149;28;20036;-75
2021/05/04 16:56:03;;;;;;;5.90;2.28;;;;;;;;;;5109288;28;20476;-75
2021/05/04 16:58:29;;;;;;;5.82;1.70;;;;;;;;;;5108976;28;20024;-75
2021/05/04 17:01:00;;;;;;;3.70;1.90;;;;;;;;;;5107942;28;20028;-75
2021/05/04 17:03:34;;;;;;;7.57;2.22;;;;;;;;;;5109280;28;20479;-74
2021/05/04 17:06:14;;;;;;;5.90;2.22;;;;;;;;;;5098795;28;20052;-74
2021/05/04 17:11:08;;;;;;;6.68;2.20;;;;;;;;;;5095519;28;20035;-75
2021/05/04 17:13:34;;;;;;;3.67;1.73;;;;;;;;;;5093604;28;20108;-75
2021/05/04 17:16:01;;;;;;;5.25;2.22;;;;;;;;;;5095289;28;20016;-74
2021/05/04 17:18:31;;;;;;;4.07;1.83;;;;;;;;;;5094878;28;20087;-75
2021/05/04 17:20:57;;;;;;;7.50;2.22;;;;;;;;;;5095002;28;20093;-75
2021/05/04 17:23:23;;;;;;;6.47;2.05;;;;;;;;;;5095013;28;20019;-75
2021/05/04 17:25:50;;;;;;;9.35;1.90;;;;;;;;;;5094514;28;20469;-75
2021/05/04 17:28:16;;;;;;;7.10;2.08;;;;;;;;;;5095082;28;20055;-75
2021/05/04 17:30:42;;;;;;;6.40;2.40;;;;;;;;;;5093993;28;20028;-76
2021/05/04 17:33:29;;;;;;;6.72;2.15;;;;;;;;;;5110109;27;20381;-75
2021/05/04 17:35:57;;;;;;;4.57;1.95;;;;;;;;;;5110431;28;20085;-75
2021/05/04 17:38:30;;;;;;;5.05;1.65;;;;;;;;;;5110291;28;20016;-75
2021/05/04 17:40:58;;;;;;;2.58;1.50;;;;;;;;;;5108475;28;20126;-74
2021/05/04 17:43:25;;;;;;;6.90;1.92;;;;;;;;;;5110032;28;20028;-73
2021/05/04 17:45:51;;;;;;;7.05;1.70;;;;;;;;;;5108915;28;20024;-73
2021/05/04 17:48:18;;;;;;;4.10;1.65;;;;;;;;;;5109715;28;20023;-74
2021/05/04 17:50:44;;;;;;;8.07;2.10;;;;;;;;;;5110129;28;20023;-74
2021/05/04 17:54:51;;;;;;;5.20;2.33;;;;;;;;;;5110001;27;20377;-74
2021/05/04 17:57:17;;;;;;;7.05;2.13;;;;;;;;;;5110206;28;20020;-74
2021/05/04 17:59:43;;;;;;;5.93;1.83;;;;;;;;;;5110457;28;20058;-74
2021/05/04 18:02:10;;;;;;;5.10;1.90;;;;;;;;;;5109992;28;20020;-74
2021/05/04 18:04:37;;;;;;;6.18;2.22;;;;;;;;;;5107724;28;20031;-75
2021/05/04 18:07:04;;;;;;;5.43;2.42;;;;;;;;;;5108289;28;20016;-74
2021/05/04 18:09:33;;;;;;;10.48;3.63;;;;;;;;;;5107595;28;20095;-76
2021/05/04 18:12:08;;;;;;;10.68;2.97;;;;;;;;;;5107118;28;20027;-74
2021/05/04 18:21:03;;;;;;;8.75;2.80;;;;;;;;;;5110032;28;20050;-74